Time;durP1;ratioP1;P1;durP2;ratioP2;P2;SDS_P1;SDS_P2;PMS_P1;PMS_P2;Temp;Humidity;BMP_temperature;BMP_pressure;BME280_temperature;BME280_humidity;BME280_pressure;Samples;Min_cycle;Max_cycle;Signal;HPM_P1;HPM_P2
2021/08/17 00:01:05;;;;;;;6.07;4.40;;;;;;;;;;5053167;28;20103;-74
2021/08/17 00:03:31;;;;;;;6.20;4.65;;;;;;;;;;5052781;28;20101;-74
2021/08/17 00:05:57;;;;;;;5.30;4.80;;;;;;;;;;5053065;28;20025;-74
2021/08/17 00:08:23;;;;;;;9.43;6.78;;;;;;;;;;5052670;28;20033;-74
2021/08/17 00:10:50;;;;;;;7.30;6.45;;;;;;;;;;5051804;28;20033;-75
2021/08/17 00:13:17;;;;;;;27.83;7.60;;;;;;;;;;5052905;28;20091;-74
2021/08/17 00:15:43;;;;;;;7.63;5.03;;;;;;;;;;5052188;28;20124;-75
2021/08/17 00:18:09;;;;;;;8.00;4.72;;;;;;;;;;5052802;28;20067;-74
2021/08/17 00:20:35;;;;;;;6.57;4.57;;;;;;;;;;5052371;28;20033;-74
2021/08/17 00:23:01;;;;;;;8.82;5.68;;;;;;;;;;5052775;28;20104;-75
2021/08/17 00:25:27;;;;;;;6.28;5.30;;;;;;;;;;5052521;28;20028;-75
2021/08/17 00:27:53;;;;;;;5.30;4.80;;;;;;;;;;5052619;28;20029;-75
2021/08/17 00:30:19;;;;;;;5.95;5.38;;;;;;;;;;5052750;28;20033;-74
2021/08/17 00:32:45;;;;;;;7.85;5.30;;;;;;;;;;5052117;28;20028;-75
2021/08/17 00:35:12;;;;;;;5.68;5.07;;;;;;;;;;5052428;28;20033;-75
2021/08/17 00:37:38;;;;;;;6.15;4.97;;;;;;;;;;5052210;28;20029;-74
2021/08/17 00:40:04;;;;;;;5.82;4.82;;;;;;;;;;5052686;28;20893;-75
2021/08/17 00:42:39;;;;;;;6.00;4.93;;;;;;;;;;5052137;28;20021;-75
2021/08/17 00:45:05;;;;;;;4.90;4.40;;;;;;;;;;5052339;28;20056;-75
2021/08/17 00:47:32;;;;;;;6.03;5.07;;;;;;;;;;5051670;28;20478;-74
2021/08/17 00:49:58;;;;;;;6.45;4.95;;;;;;;;;;5052762;28;20372;-74
2021/08/17 00:52:24;;;;;;;5.28;4.78;;;;;;;;;;5052523;28;20086;-74
2021/08/17 00:54:50;;;;;;;6.53;5.10;;;;;;;;;;5052089;28;20029;-74
2021/08/17 00:57:17;;;;;;;5.88;4.78;;;;;;;;;;5052130;28;20040;-75
2021/08/17 00:59:43;;;;;;;7.28;4.72;;;;;;;;;;5051768;28;20020;-74
2021/08/17 01:02:09;;;;;;;10.07;5.75;;;;;;;;;;5052109;28;20033;-75
2021/08/17 01:04:35;;;;;;;7.72;5.40;;;;;;;;;;5051873;28;20028;-75
2021/08/17 01:07:05;;;;;;;8.30;5.80;;;;;;;;;;5051976;28;20445;-75
2021/08/17 01:09:31;;;;;;;6.07;5.38;;;;;;;;;;5051860;28;20024;-75
2021/08/17 01:12:00;;;;;;;7.72;5.88;;;;;;;;;;5052017;28;20032;-75
2021/08/17 01:14:27;;;;;;;8.00;5.15;;;;;;;;;;5051872;28;20025;-74
2021/08/17 01:16:53;;;;;;;5.82;5.32;;;;;;;;;;5051690;28;20048;-75
2021/08/17 01:19:21;;;;;;;6.00;5.40;;;;;;;;;;5052150;28;20037;-74
2021/08/17 01:21:47;;;;;;;5.90;5.22;;;;;;;;;;5051461;28;20033;-74
2021/08/17 01:24:13;;;;;;;7.10;5.75;;;;;;;;;;5051830;28;20025;-74
2021/08/17 01:26:39;;;;;;;6.32;5.25;;;;;;;;;;5051521;28;20029;-75
2021/08/17 01:29:08;;;;;;;6.90;5.80;;;;;;;;;;5055911;28;20037;-74
2021/08/17 01:31:34;;;;;;;6.03;5.47;;;;;;;;;;5055625;28;20427;-74
2021/08/17 01:34:00;;;;;;;7.03;5.03;;;;;;;;;;5054723;28;20094;-74
2021/08/17 01:36:26;;;;;;;5.82;5.32;;;;;;;;;;5055852;28;20476;-74
2021/08/17 01:38:53;;;;;;;6.43;5.20;;;;;;;;;;5055483;28;20048;-74
2021/08/17 01:41:19;;;;;;;6.30;5.65;;;;;;;;;;5055754;28;20025;-75
2021/08/17 01:43:46;;;;;;;6.25;5.03;;;;;;;;;;5055505;28;20479;-75
2021/08/17 01:46:12;;;;;;;9.05;5.93;;;;;;;;;;5055667;28;20123;-75
2021/08/17 01:48:39;;;;;;;6.65;5.45;;;;;;;;;;5055252;28;20052;-75
2021/08/17 01:51:09;;;;;;;6.45;5.85;;;;;;;;;;5055586;28;20036;-75
2021/08/17 01:53:36;;;;;;;6.97;5.70;;;;;;;;;;5055353;28;20025;-74
2021/08/17 01:56:06;;;;;;;5.30;4.80;;;;;;;;;;5055453;28;20041;-75
2021/08/17 01:58:32;;;;;;;6.53;5.93;;;;;;;;;;5055298;28;20060;-75
2021/08/17 02:00:58;;;;;;;6.60;5.50;;;;;;;;;;5055347;28;20025;-75
2021/08/17 02:03:24;;;;;;;6.07;5.47;;;;;;;;;;5055336;28;20032;-75
2021/08/17 02:05:50;;;;;;;5.90;5.30;;;;;;;;;;5055167;28;20028;-75
2021/08/17 02:08:16;;;;;;;8.23;5.47;;;;;;;;;;5055485;28;20033;-75
2021/08/17 02:10:43;;;;;;;5.88;5.28;;;;;;;;;;5054917;28;20029;-75
2021/08/17 02:13:09;;;;;;;8.00;5.82;;;;;;;;;;5055287;28;20083;-75
2021/08/17 02:15:35;;;;;;;6.18;5.57;;;;;;;;;;5054912;28;20053;-75
2021/08/17 02:18:01;;;;;;;6.50;5.18;;;;;;;;;;5054907;28;20039;-74
2021/08/17 02:20:27;;;;;;;6.13;5.30;;;;;;;;;;5054939;28;20053;-75
2021/08/17 02:22:53;;;;;;;6.10;5.32;;;;;;;;;;5054760;28;20082;-74
2021/08/17 02:25:20;;;;;;;6.20;5.28;;;;;;;;;;5055018;28;20102;-75
2021/08/17 02:27:46;;;;;;;6.90;5.70;;;;;;;;;;5054489;28;20028;-75
2021/08/17 02:30:12;;;;;;;5.25;4.75;;;;;;;;;;5054900;28;20032;-74
2021/08/17 02:32:38;;;;;;;9.52;5.85;;;;;;;;;;5054935;28;20078;-74
2021/08/17 02:35:05;;;;;;;6.32;5.13;;;;;;;;;;5054477;28;20029;-75
2021/08/17 02:37:31;;;;;;;6.25;5.50;;;;;;;;;;5054761;28;20029;-75
2021/08/17 02:39:57;;;;;;;5.97;5.38;;;;;;;;;;5052797;28;20082;-75
2021/08/17 02:42:23;;;;;;;5.90;4.57;;;;;;;;;;5054810;28;20024;-74
2021/08/17 02:44:49;;;;;;;6.47;5.65;;;;;;;;;;5054195;28;20029;-74
2021/08/17 02:47:16;;;;;;;9.20;5.63;;;;;;;;;;5054802;28;20464;-74
2021/08/17 02:49:42;;;;;;;6.90;5.85;;;;;;;;;;5054106;28;20053;-74
2021/08/17 02:52:08;;;;;;;8.35;5.85;;;;;;;;;;5053980;28;20468;-75
2021/08/17 02:54:35;;;;;;;6.60;5.50;;;;;;;;;;5054493;28;20027;-75
2021/08/17 02:57:01;;;;;;;6.28;5.43;;;;;;;;;;5053850;28;20033;-74
2021/08/17 02:59:27;;;;;;;7.18;5.80;;;;;;;;;;5054360;28;20392;-75
2021/08/17 03:01:54;;;;;;;8.10;5.78;;;;;;;;;;5054036;28;20039;-75
2021/08/17 03:04:20;;;;;;;7.30;6.35;;;;;;;;;;5054342;28;20029;-74
2021/08/17 03:06:46;;;;;;;6.72;4.90;;;;;;;;;;5054205;28;20036;-75
2021/08/17 03:09:12;;;;;;;9.10;5.85;;;;;;;;;;5053881;28;20060;-75
2021/08/17 03:11:38;;;;;;;7.45;6.22;;;;;;;;;;5054166;28;20474;-74
2021/08/17 03:14:04;;;;;;;6.93;5.93;;;;;;;;;;5053676;28;20488;-75
2021/08/17 03:16:31;;;;;;;12.23;6.65;;;;;;;;;;5053987;28;20476;-75
2021/08/17 03:18:57;;;;;;;8.75;6.30;;;;;;;;;;5053851;28;20112;-74
2021/08/17 03:21:24;;;;;;;13.00;6.90;;;;;;;;;;5054029;28;20025;-74
2021/08/17 03:23:50;;;;;;;11.75;7.05;;;;;;;;;;5053768;28;20369;-74
2021/08/17 03:26:17;;;;;;;10.20;6.60;;;;;;;;;;5053563;28;20021;-75
2021/08/17 03:28:43;;;;;;;9.27;6.13;;;;;;;;;;5053862;28;20033;-74
2021/08/17 03:31:09;;;;;;;8.55;6.50;;;;;;;;;;5053340;28;20028;-74
2021/08/17 03:33:36;;;;;;;7.50;5.70;;;;;;;;;;5053734;28;20043;-75
2021/08/17 03:36:04;;;;;;;8.02;6.20;;;;;;;;;;5053292;28;20124;-75
2021/08/17 03:38:31;;;;;;;8.30;6.25;;;;;;;;;;5053581;28;20044;-74
2021/08/17 03:40:57;;;;;;;8.88;5.60;;;;;;;;;;5053583;28;20108;-75
2021/08/17 03:43:24;;;;;;;16.67;7.30;;;;;;;;;;5052323;28;20031;-75
2021/08/17 03:45:51;;;;;;;12.52;6.22;;;;;;;;;;5053310;28;20350;-75
2021/08/17 03:48:18;;;;;;;11.57;6.80;;;;;;;;;;5052940;28;20053;-74
2021/08/17 03:50:44;;;;;;;12.13;6.10;;;;;;;;;;5052755;28;20516;-74
2021/08/17 03:53:10;;;;;;;13.38;6.47;;;;;;;;;;5053017;28;20061;-75
2021/08/17 03:55:36;;;;;;;10.80;6.57;;;;;;;;;;5053267;28;20067;-74
2021/08/17 03:58:02;;;;;;;9.85;6.05;;;;;;;;;;5053086;28;20115;-74
2021/08/17 04:00:32;;;;;;;8.68;6.13;;;;;;;;;;5052977;28;20056;-74
2021/08/17 04:02:58;;;;;;;11.38;6.25;;;;;;;;;;5053103;28;20380;-74
2021/08/17 04:05:24;;;;;;;11.80;7.30;;;;;;;;;;5052755;28;20056;-74
2021/08/17 04:07:50;;;;;;;17.33;15.55;;;;;;;;;;5053032;28;20472;-75
2021/08/17 04:10:17;;;;;;;10.38;9.02;;;;;;;;;;5052796;28;20028;-74
2021/08/17 04:12:43;;;;;;;9.50;5.72;;;;;;;;;;5052938;28;20047;-74
2021/08/17 04:15:10;;;;;;;9.27;6.65;;;;;;;;;;5052598;28;20029;-74
2021/08/17 04:17:36;;;;;;;10.45;6.78;;;;;;;;;;5052886;28;20503;-75
2021/08/17 04:20:03;;;;;;;7.90;6.00;;;;;;;;;;5052695;28;20036;-76
2021/08/17 04:22:29;;;;;;;18.67;16.40;;;;;;;;;;5052718;28;20025;-76
2021/08/17 04:24:55;;;;;;;19.77;17.60;;;;;;;;;;5052664;28;20090;-76
2021/08/17 04:27:21;;;;;;;23.95;16.88;;;;;;;;;;5052687;28;20027;-75
2021/08/17 04:29:48;;;;;;;11.88;10.68;;;;;;;;;;5052745;28;20555;-73
2021/08/17 04:32:14;;;;;;;24.25;16.58;;;;;;;;;;5052153;28;20533;-73
2021/08/17 04:34:40;;;;;;;20.80;18.70;;;;;;;;;;5052710;28;20086;-73
2021/08/17 04:37:06;;;;;;;13.38;10.40;;;;;;;;;;5052379;28;20044;-74
2021/08/17 04:39:32;;;;;;;9.88;8.10;;;;;;;;;;5052194;28;20029;-74
2021/08/17 04:41:58;;;;;;;8.38;6.43;;;;;;;;;;5052297;28;20021;-74
2021/08/17 04:44:25;;;;;;;6.88;6.15;;;;;;;;;;5052198;28;20435;-74
2021/08/17 04:46:51;;;;;;;6.22;5.63;;;;;;;;;;5052313;28;20028;-74
2021/08/17 04:49:17;;;;;;;7.95;6.45;;;;;;;;;;5052074;28;20080;-74
2021/08/17 04:51:43;;;;;;;7.72;5.45;;;;;;;;;;5052051;28;20029;-74
2021/08/17 04:54:09;;;;;;;7.55;6.00;;;;;;;;;;5052203;28;20025;-73
2021/08/17 04:56:35;;;;;;;9.63;6.13;;;;;;;;;;5050841;28;20399;-73
2021/08/17 04:59:01;;;;;;;27.73;24.25;;;;;;;;;;5052116;28;20104;-74
2021/08/17 05:01:27;;;;;;;10.23;6.97;;;;;;;;;;5051776;28;20076;-74
2021/08/17 05:03:53;;;;;;;10.38;6.50;;;;;;;;;;5050701;28;20383;-74
2021/08/17 05:06:20;;;;;;;10.10;7.47;;;;;;;;;;5052214;28;20087;-74
2021/08/17 05:08:46;;;;;;;8.07;7.20;;;;;;;;;;5051860;28;20028;-74
2021/08/17 05:11:12;;;;;;;7.45;5.93;;;;;;;;;;5051814;28;20033;-74
2021/08/17 05:13:38;;;;;;;12.32;7.28;;;;;;;;;;5051545;28;20056;-74
2021/08/17 05:16:04;;;;;;;9.50;7.03;;;;;;;;;;5051546;28;20037;-74
2021/08/17 05:18:32;;;;;;;10.98;7.57;;;;;;;;;;5051356;28;20025;-74
2021/08/17 05:20:59;;;;;;;9.15;6.60;;;;;;;;;;5051487;28;20040;-75
2021/08/17 05:23:26;;;;;;;6.28;5.68;;;;;;;;;;5051246;28;20040;-75
2021/08/17 05:25:52;;;;;;;8.52;7.47;;;;;;;;;;5051369;28;20017;-74
2021/08/17 05:28:18;;;;;;;11.25;10.15;;;;;;;;;;5051752;28;20433;-75
2021/08/17 05:30:45;;;;;;;7.88;7.13;;;;;;;;;;5050879;28;20021;-74
2021/08/17 05:33:11;;;;;;;10.88;5.85;;;;;;;;;;5050014;28;20078;-74
2021/08/17 05:35:38;;;;;;;8.35;5.72;;;;;;;;;;5050819;28;20029;-74
2021/08/17 05:38:05;;;;;;;11.00;5.38;;;;;;;;;;5050889;28;20102;-75
2021/08/17 05:40:31;;;;;;;6.25;5.65;;;;;;;;;;5049702;28;20465;-74
2021/08/17 05:42:57;;;;;;;7.35;5.32;;;;;;;;;;5049914;28;20022;-75
2021/08/17 05:45:23;;;;;;;6.32;5.70;;;;;;;;;;5052214;28;20017;-74
2021/08/17 05:47:50;;;;;;;7.53;5.63;;;;;;;;;;5051727;28;20056;-75
2021/08/17 05:50:17;;;;;;;6.05;5.40;;;;;;;;;;5051030;28;20040;-75
2021/08/17 05:52:44;;;;;;;6.63;5.35;;;;;;;;;;5051842;28;20049;-74
2021/08/17 05:55:13;;;;;;;7.72;5.72;;;;;;;;;;5051140;28;20021;-74
2021/08/17 05:57:39;;;;;;;24.27;7.00;;;;;;;;;;5051088;28;20029;-76
2021/08/17 06:00:06;;;;;;;30.20;7.47;;;;;;;;;;5050343;28;20029;-75
2021/08/17 06:02:32;;;;;;;11.75;6.15;;;;;;;;;;5051620;28;20029;-73
2021/08/17 06:04:59;;;;;;;7.30;5.75;;;;;;;;;;5050984;28;20025;-74
2021/08/17 06:07:25;;;;;;;14.95;6.30;;;;;;;;;;5051472;28;20029;-74
2021/08/17 06:09:51;;;;;;;7.28;5.45;;;;;;;;;;5051708;28;20029;-73
2021/08/17 06:12:18;;;;;;;11.23;5.75;;;;;;;;;;5050500;28;20128;-74
2021/08/17 06:14:44;;;;;;;9.75;5.80;;;;;;;;;;5055104;28;20028;-74
2021/08/17 06:17:13;;;;;;;7.18;5.43;;;;;;;;;;5054807;28;20536;-78
2021/08/17 06:19:39;;;;;;;6.18;5.57;;;;;;;;;;5054787;28;20024;-76
2021/08/17 06:22:05;;;;;;;7.18;5.55;;;;;;;;;;5054821;28;20053;-76
2021/08/17 06:24:31;;;;;;;8.48;6.20;;;;;;;;;;5055130;28;20105;-76
2021/08/17 06:26:58;;;;;;;7.32;5.50;;;;;;;;;;5054599;28;20017;-75
2021/08/17 06:29:24;;;;;;;9.05;4.82;;;;;;;;;;5054853;28;20025;-75
2021/08/17 06:31:50;;;;;;;58.13;9.63;;;;;;;;;;5055034;28;20028;-77
2021/08/17 06:34:16;;;;;;;6.55;5.25;;;;;;;;;;5054357;28;20476;-77
2021/08/17 06:36:42;;;;;;;6.68;4.88;;;;;;;;;;5054073;28;20045;-76
2021/08/17 06:39:08;;;;;;;33.13;30.02;;;;;;;;;;5054334;28;20017;-77
2021/08/17 06:41:35;;;;;;;13.10;11.77;;;;;;;;;;5053883;28;20077;-76
2021/08/17 06:44:01;;;;;;;12.48;8.32;;;;;;;;;;5054764;28;20037;-77
2021/08/17 06:46:28;;;;;;;7.35;6.00;;;;;;;;;;5054553;28;20044;-77
2021/08/17 06:48:54;;;;;;;14.00;6.90;;;;;;;;;;5054316;28;20045;-77
2021/08/17 06:51:21;;;;;;;12.15;6.18;;;;;;;;;;5053798;28;20129;-75
2021/08/17 06:53:47;;;;;;;8.68;4.55;;;;;;;;;;5051279;28;20024;-74
2021/08/17 06:56:13;;;;;;;13.10;6.97;;;;;;;;;;5053036;28;20048;-74
2021/08/17 06:58:39;;;;;;;14.07;12.57;;;;;;;;;;5053517;28;20024;-76
2021/08/17 07:01:05;;;;;;;9.35;6.63;;;;;;;;;;5053563;28;20074;-75
2021/08/17 07:03:31;;;;;;;9.77;5.50;;;;;;;;;;5053437;28;20113;-76
2021/08/17 07:05:58;;;;;;;7.88;5.05;;;;;;;;;;5053765;28;20465;-74
2021/08/17 07:08:24;;;;;;;7.18;5.30;;;;;;;;;;5053621;28;20021;-75
2021/08/17 07:10:50;;;;;;;6.25;5.30;;;;;;;;;;5053402;28;20476;-75
2021/08/17 07:13:17;;;;;;;10.52;5.53;;;;;;;;;;5053214;28;20024;-75
2021/08/17 07:15:43;;;;;;;4.88;4.40;;;;;;;;;;5053473;28;20452;-75
2021/08/17 07:18:10;;;;;;;10.63;6.28;;;;;;;;;;5053032;28;20029;-74
2021/08/17 07:20:37;;;;;;;35.25;11.80;;;;;;;;;;5052974;28;20032;-75
2021/08/17 07:23:03;;;;;;;7.75;5.78;;;;;;;;;;5052189;28;20037;-74
2021/08/17 07:25:29;;;;;;;9.23;5.03;;;;;;;;;;5051709;28;20028;-75
2021/08/17 07:27:56;;;;;;;20.85;6.05;;;;;;;;;;5052880;28;20028;-76
2021/08/17 07:30:22;;;;;;;10.05;4.95;;;;;;;;;;5053099;28;20032;-74
2021/08/17 07:32:48;;;;;;;8.27;5.82;;;;;;;;;;5053007;28;20373;-74
2021/08/17 07:35:17;;;;;;;10.98;6.53;;;;;;;;;;5052020;28;20033;-74
2021/08/17 07:37:44;;;;;;;5.07;4.57;;;;;;;;;;5053080;28;20037;-75
2021/08/17 07:40:11;;;;;;;6.00;4.70;;;;;;;;;;5052644;28;20032;-75
2021/08/17 07:42:37;;;;;;;6.15;4.82;;;;;;;;;;5052256;28;20021;-75
2021/08/17 07:45:04;;;;;;;39.50;8.10;;;;;;;;;;5052925;28;20490;-75
2021/08/17 07:47:31;;;;;;;6.45;4.20;;;;;;;;;;5051559;28;20380;-73
2021/08/17 07:49:57;;;;;;;4.82;4.43;;;;;;;;;;5053616;28;20495;-74
2021/08/17 07:52:23;;;;;;;6.50;4.78;;;;;;;;;;5053553;28;20103;-74
2021/08/17 07:54:49;;;;;;;6.65;4.90;;;;;;;;;;5053182;28;20029;-74
2021/08/17 07:57:16;;;;;;;8.38;4.35;;;;;;;;;;5053398;28;20373;-75
2021/08/17 07:59:42;;;;;;;5.25;4.72;;;;;;;;;;5053488;28;20388;-74
2021/08/17 08:02:09;;;;;;;5.57;4.07;;;;;;;;;;5052643;28;20222;-74
2021/08/17 08:04:35;;;;;;;5.78;4.80;;;;;;;;;;5053125;28;20021;-75
2021/08/17 08:07:01;;;;;;;7.38;4.25;;;;;;;;;;5053102;28;20472;-75
2021/08/17 08:09:30;;;;;;;5.97;5.10;;;;;;;;;;5052814;28;20431;-75
2021/08/17 08:11:56;;;;;;;7.45;4.70;;;;;;;;;;5052791;28;20029;-75
2021/08/17 08:14:22;;;;;;;13.30;4.68;;;;;;;;;;5053266;28;20033;-75
2021/08/17 08:16:49;;;;;;;11.07;4.85;;;;;;;;;;5052267;28;20500;-75
2021/08/17 08:19:15;;;;;;;22.20;6.22;;;;;;;;;;5053257;28;20029;-75
2021/08/17 08:21:41;;;;;;;124.93;16.08;;;;;;;;;;5052848;28;20029;-75
2021/08/17 08:24:07;;;;;;;15.27;6.95;;;;;;;;;;5052750;28;20499;-75
2021/08/17 08:26:33;;;;;;;6.93;4.60;;;;;;;;;;5052546;28;20488;-75
2021/08/17 08:28:59;;;;;;;6.43;5.18;;;;;;;;;;5052399;28;20025;-76
2021/08/17 08:31:25;;;;;;;5.22;4.82;;;;;;;;;;5045607;28;20029;-75
2021/08/17 08:33:51;;;;;;;6.70;4.60;;;;;;;;;;5052405;28;20039;-74
2021/08/17 08:36:18;;;;;;;6.40;4.80;;;;;;;;;;5037053;28;20037;-75
2021/08/17 08:38:44;;;;;;;15.85;5.95;;;;;;;;;;5041258;28;20134;-74
2021/08/17 08:41:16;;;;;;;7.35;5.43;;;;;;;;;;5052273;28;20091;-75
2021/08/17 08:43:42;;;;;;;19.13;6.32;;;;;;;;;;5051548;28;20051;-74
2021/08/17 08:46:12;;;;;;;7.80;5.65;;;;;;;;;;5051806;28;20032;-74
2021/08/17 08:48:38;;;;;;;6.03;5.43;;;;;;;;;;5051505;28;20500;-74
2021/08/17 08:51:04;;;;;;;5.32;4.82;;;;;;;;;;5051701;28;20500;-73
2021/08/17 08:53:30;;;;;;;5.88;5.25;;;;;;;;;;5051451;28;20450;-73
2021/08/17 08:55:56;;;;;;;6.35;5.43;;;;;;;;;;5049714;28;20025;-73
2021/08/17 08:58:22;;;;;;;7.18;5.30;;;;;;;;;;5052286;28;20025;-74
2021/08/17 09:00:48;;;;;;;7.38;5.43;;;;;;;;;;5052234;28;20369;-75
2021/08/17 09:03:16;;;;;;;6.55;5.63;;;;;;;;;;5051604;28;20025;-75
2021/08/17 09:05:54;;;;;;;6.18;5.18;;;;;;;;;;5052542;28;20021;-75
2021/08/17 09:08:24;;;;;;;11.63;6.93;;;;;;;;;;5052186;28;20476;-75
2021/08/17 09:10:50;;;;;;;7.47;6.82;;;;;;;;;;5051561;28;20032;-74
2021/08/17 09:13:16;;;;;;;7.28;6.25;;;;;;;;;;5052333;28;20033;-74
2021/08/17 09:15:42;;;;;;;7.45;6.05;;;;;;;;;;5052189;28;20037;-76
2021/08/17 09:18:10;;;;;;;8.85;5.65;;;;;;;;;;5050050;28;20080;-76
2021/08/17 09:20:39;;;;;;;8.65;6.22;;;;;;;;;;5052430;28;20507;-75
2021/08/17 09:23:24;;;;;;;10.15;6.38;;;;;;;;;;5051890;28;20045;-74
2021/08/17 09:25:51;;;;;;;9.18;6.28;;;;;;;;;;5051479;28;20033;-75
2021/08/17 09:28:43;;;;;;;6.03;5.53;;;;;;;;;;5051750;28;20129;-76
2021/08/17 09:31:28;;;;;;;6.60;5.35;;;;;;;;;;5049631;28;20132;-75
2021/08/17 09:33:54;;;;;;;7.28;6.18;;;;;;;;;;5051499;28;20032;-76
2021/08/17 09:36:21;;;;;;;7.50;6.72;;;;;;;;;;5051928;28;20036;-77
2021/08/17 09:38:47;;;;;;;7.35;6.10;;;;;;;;;;5052060;28;20100;-74
2021/08/17 09:41:21;;;;;;;9.38;6.43;;;;;;;;;;5051181;28;20058;-75
2021/08/17 09:44:05;;;;;;;6.50;5.90;;;;;;;;;;5051650;28;20488;-74
2021/08/17 09:46:39;;;;;;;7.93;6.63;;;;;;;;;;5051747;28;20021;-75
2021/08/17 09:52:12;;;;;;;7.88;7.07;;;;;;;;;;5055595;28;20083;-76
2021/08/17 09:54:39;;;;;;;8.77;7.18;;;;;;;;;;5054901;28;20102;-75
2021/08/17 09:57:06;;;;;;;10.73;7.10;;;;;;;;;;5055129;28;20061;-74
2021/08/17 09:59:33;;;;;;;7.40;6.45;;;;;;;;;;5056079;28;20083;-74
2021/08/17 10:02:00;;;;;;;9.18;7.90;;;;;;;;;;5055329;28;20021;-74
2021/08/17 10:04:26;;;;;;;83.82;12.77;;;;;;;;;;5055223;28;20528;-74
2021/08/17 10:06:53;;;;;;;10.32;7.32;;;;;;;;;;5055689;28;20036;-75
2021/08/17 10:09:19;;;;;;;17.45;15.77;;;;;;;;;;5054747;28;20488;-74
2021/08/17 10:11:46;;;;;;;11.45;10.13;;;;;;;;;;5055432;28;20025;-73
2021/08/17 10:14:12;;;;;;;8.35;6.70;;;;;;;;;;5055385;28;20021;-73
2021/08/17 10:16:41;;;;;;;9.02;6.40;;;;;;;;;;5054838;28;20065;-74
2021/08/17 10:19:07;;;;;;;9.57;6.85;;;;;;;;;;5055012;28;20045;-75
2021/08/17 10:21:34;;;;;;;29.40;8.95;;;;;;;;;;5055097;28;20647;-76
2021/08/17 10:24:00;;;;;;;13.35;7.18;;;;;;;;;;5055174;28;20083;-74
2021/08/17 10:26:28;;;;;;;15.40;7.10;;;;;;;;;;5054715;28;20032;-74
2021/08/17 10:28:55;;;;;;;7.22;6.53;;;;;;;;;;5055296;28;20052;-74
2021/08/17 10:31:25;;;;;;;8.18;7.38;;;;;;;;;;5054501;28;20127;-73
2021/08/17 10:34:05;;;;;;;9.63;6.90;;;;;;;;;;5055206;28;20025;-74
2021/08/17 10:36:35;;;;;;;9.02;8.07;;;;;;;;;;5054433;28;20079;-75
2021/08/17 10:39:27;;;;;;;9.75;7.80;;;;;;;;;;5054537;28;20029;-75
2021/08/17 10:41:54;;;;;;;8.75;7.30;;;;;;;;;;5054733;28;20037;-76
2021/08/17 10:44:22;;;;;;;8.52;7.50;;;;;;;;;;5054393;28;20023;-75
2021/08/17 10:46:55;;;;;;;8.80;7.22;;;;;;;;;;5054066;28;20082;-75
2021/08/17 10:49:27;;;;;;;7.38;6.72;;;;;;;;;;5054621;28;20080;-76
2021/08/17 10:51:55;;;;;;;7.88;7.18;;;;;;;;;;5054654;28;20075;-75
2021/08/17 10:54:21;;;;;;;8.75;7.70;;;;;;;;;;5054218;28;20124;-75
2021/08/17 10:56:48;;;;;;;8.57;7.82;;;;;;;;;;5054012;28;20044;-76
2021/08/17 10:59:15;;;;;;;7.10;6.45;;;;;;;;;;5054467;28;20025;-76
2021/08/17 11:01:42;;;;;;;10.07;9.07;;;;;;;;;;5053814;28;20035;-76
2021/08/17 11:04:09;;;;;;;8.70;7.97;;;;;;;;;;5054748;28;20030;-74
2021/08/17 11:06:54;;;;;;;8.02;7.25;;;;;;;;;;5054184;28;20040;-74
2021/08/17 11:09:31;;;;;;;9.27;8.48;;;;;;;;;;5053910;28;20025;-76
2021/08/17 11:12:08;;;;;;;8.43;7.63;;;;;;;;;;5054180;28;20033;-75
2021/08/17 11:14:35;;;;;;;9.82;8.90;;;;;;;;;;5054140;28;20024;-74
2021/08/17 11:17:03;;;;;;;10.95;8.00;;;;;;;;;;5053734;28;20029;-74
2021/08/17 11:19:30;;;;;;;9.30;8.50;;;;;;;;;;5053554;28;20043;-75
2021/08/17 11:21:57;;;;;;;96.82;19.63;;;;;;;;;;5048690;28;20473;-75
2021/08/17 11:24:25;;;;;;;16.20;9.05;;;;;;;;;;5049008;28;20381;-76
2021/08/17 11:26:56;;;;;;;13.27;11.85;;;;;;;;;;5049586;28;20029;-75
2021/08/17 11:29:40;;;;;;;9.88;8.98;;;;;;;;;;5048684;28;20034;-76
2021/08/17 11:32:08;;;;;;;11.75;10.15;;;;;;;;;;5048184;28;20041;-76
2021/08/17 11:34:35;;;;;;;10.57;9.50;;;;;;;;;;5051872;28;20036;-74
2021/08/17 11:37:20;;;;;;;10.80;8.77;;;;;;;;;;5047873;28;20037;-75
2021/08/17 11:39:46;;;;;;;9.82;8.85;;;;;;;;;;5046941;28;20113;-75
2021/08/17 11:42:15;;;;;;;10.20;9.20;;;;;;;;;;5051765;28;20522;-69
2021/08/17 11:44:42;;;;;;;11.57;10.35;;;;;;;;;;5052836;28;20025;-75
2021/08/17 11:47:09;;;;;;;9.55;8.70;;;;;;;;;;5053094;28;20025;-75
2021/08/17 11:49:36;;;;;;;11.07;9.27;;;;;;;;;;5052743;28;20074;-76
2021/08/17 11:52:02;;;;;;;9.63;8.77;;;;;;;;;;5052019;28;20029;-76
2021/08/17 11:54:28;;;;;;;10.32;9.32;;;;;;;;;;5047623;28;20052;-75
2021/08/17 11:57:12;;;;;;;11.10;10.02;;;;;;;;;;5046927;28;20033;-74
2021/08/17 11:59:40;;;;;;;12.40;11.38;;;;;;;;;;5047414;28;20027;-75
2021/08/17 12:02:06;;;;;;;11.88;10.18;;;;;;;;;;5047207;28;20032;-76
2021/08/17 12:04:32;;;;;;;12.82;11.13;;;;;;;;;;5047670;28;20431;-78
2021/08/17 12:07:25;;;;;;;12.15;10.88;;;;;;;;;;5051352;28;20064;-74
2021/08/17 12:09:51;;;;;;;12.90;11.60;;;;;;;;;;5050246;28;20435;-78
2021/08/17 12:12:19;;;;;;;14.23;11.77;;;;;;;;;;5051994;28;20083;-76
2021/08/17 12:14:45;;;;;;;14.23;12.93;;;;;;;;;;5051553;28;20031;-76
2021/08/17 12:17:12;;;;;;;13.40;12.13;;;;;;;;;;5052320;28;20479;-75
2021/08/17 12:19:57;;;;;;;26.95;13.50;;;;;;;;;;5051957;28;20021;-77
2021/08/17 12:22:25;;;;;;;12.20;10.93;;;;;;;;;;5052698;28;20167;-75
2021/08/17 12:24:52;;;;;;;11.73;10.63;;;;;;;;;;5052577;28;20108;-76
2021/08/17 12:27:26;;;;;;;12.02;10.90;;;;;;;;;;5052779;28;20021;-76
2021/08/17 12:29:53;;;;;;;10.48;9.43;;;;;;;;;;5052059;28;20511;-76
2021/08/17 12:32:19;;;;;;;12.02;10.82;;;;;;;;;;5052922;28;20052;-76
2021/08/17 12:34:46;;;;;;;17.98;11.32;;;;;;;;;;5052197;28;20029;-78
2021/08/17 12:37:26;;;;;;;15.88;10.55;;;;;;;;;;5051032;28;20052;-76
2021/08/17 12:39:54;;;;;;;14.27;9.93;;;;;;;;;;5040816;28;20199;-76
2021/08/17 12:42:20;;;;;;;12.70;10.15;;;;;;;;;;5041401;28;20029;-76
2021/08/17 12:44:46;;;;;;;10.23;9.18;;;;;;;;;;5043416;28;20065;-75
2021/08/17 12:47:19;;;;;;;11.30;9.85;;;;;;;;;;5040815;28;20055;-76
2021/08/17 12:49:48;;;;;;;13.07;10.33;;;;;;;;;;5039999;28;20128;-77
2021/08/17 12:52:33;;;;;;;11.43;10.05;;;;;;;;;;5049443;28;20741;-77
2021/08/17 12:55:18;;;;;;;10.18;9.27;;;;;;;;;;5052009;28;20128;-75
2021/08/17 12:57:46;;;;;;;10.63;9.50;;;;;;;;;;5051979;28;20029;-74
2021/08/17 13:00:13;;;;;;;12.02;10.88;;;;;;;;;;5051752;28;20124;-74
2021/08/17 13:02:40;;;;;;;10.57;9.57;;;;;;;;;;5051981;28;20472;-74
2021/08/17 13:05:07;;;;;;;10.95;9.80;;;;;;;;;;5052401;28;20041;-76
2021/08/17 13:07:33;;;;;;;9.43;8.45;;;;;;;;;;5052292;28;20025;-74
2021/08/17 13:10:00;;;;;;;12.38;9.50;;;;;;;;;;5052022;28;20032;-75
2021/08/17 13:12:27;;;;;;;11.40;10.23;;;;;;;;;;5052200;28;20025;-74
2021/08/17 13:14:53;;;;;;;11.27;10.25;;;;;;;;;;5051195;28;20124;-75
2021/08/17 13:17:20;;;;;;;9.95;8.98;;;;;;;;;;5052314;28;20400;-74
2021/08/17 13:19:46;;;;;;;10.85;9.95;;;;;;;;;;5051629;28;20032;-75
2021/08/17 13:22:12;;;;;;;10.05;9.05;;;;;;;;;;5051203;28;20492;-76
2021/08/17 13:24:38;;;;;;;11.15;9.27;;;;;;;;;;5050821;28;20025;-77
2021/08/17 13:27:05;;;;;;;10.80;9.80;;;;;;;;;;5051785;28;20488;-75
2021/08/17 13:29:31;;;;;;;11.93;10.10;;;;;;;;;;5051165;28;20037;-76
2021/08/17 13:31:58;;;;;;;9.70;8.57;;;;;;;;;;5051733;28;20036;-76
2021/08/17 13:34:25;;;;;;;9.38;8.48;;;;;;;;;;5052298;28;20087;-76
2021/08/17 13:36:52;;;;;;;11.05;9.73;;;;;;;;;;5051590;28;20037;-76
2021/08/17 13:39:18;;;;;;;9.90;8.80;;;;;;;;;;5051689;28;20400;-75
2021/08/17 13:41:44;;;;;;;9.93;8.90;;;;;;;;;;5051945;28;20071;-77
2021/08/17 13:44:11;;;;;;;11.02;9.77;;;;;;;;;;5051457;28;20025;-76
2021/08/17 13:46:37;;;;;;;11.70;9.00;;;;;;;;;;5052038;28;20029;-75
2021/08/17 13:49:03;;;;;;;9.18;8.27;;;;;;;;;;5051750;28;20053;-75
2021/08/17 13:51:30;;;;;;;7.95;7.20;;;;;;;;;;5051931;28;20491;-76
2021/08/17 13:53:56;;;;;;;8.13;7.35;;;;;;;;;;5052082;28;20029;-76
2021/08/17 13:56:22;;;;;;;11.05;8.05;;;;;;;;;;5051576;28;20068;-76
2021/08/17 13:58:49;;;;;;;9.75;8.85;;;;;;;;;;5051641;28;20032;-75
2021/08/17 14:01:16;;;;;;;9.95;8.68;;;;;;;;;;5051829;28;20065;-74
2021/08/17 14:03:43;;;;;;;9.45;8.50;;;;;;;;;;5051930;28;20484;-75
2021/08/17 14:06:09;;;;;;;9.45;8.52;;;;;;;;;;5051406;28;20029;-75
2021/08/17 14:08:35;;;;;;;10.13;9.13;;;;;;;;;;5052093;28;20033;-75
2021/08/17 14:11:01;;;;;;;8.85;7.82;;;;;;;;;;5052001;28;20040;-75
2021/08/17 14:13:27;;;;;;;19.83;17.83;;;;;;;;;;5051266;28;20036;-75
2021/08/17 14:15:55;;;;;;;13.45;12.07;;;;;;;;;;5051493;28;20036;-75
2021/08/17 14:18:21;;;;;;;9.75;8.85;;;;;;;;;;5051747;28;20390;-75
2021/08/17 14:20:47;;;;;;;8.98;8.10;;;;;;;;;;5051355;28;20044;-75
2021/08/17 14:23:13;;;;;;;10.40;9.27;;;;;;;;;;5051872;28;20029;-75
2021/08/17 14:25:39;;;;;;;10.57;9.00;;;;;;;;;;5051797;28;20035;-75
2021/08/17 14:28:05;;;;;;;8.77;7.97;;;;;;;;;;5051132;28;20194;-76
2021/08/17 14:30:31;;;;;;;9.32;8.43;;;;;;;;;;5051736;28;20033;-75
2021/08/17 14:32:58;;;;;;;9.73;8.52;;;;;;;;;;5051908;28;20029;-76
2021/08/17 14:35:24;;;;;;;9.07;8.18;;;;;;;;;;5053591;28;20096;-79
2021/08/17 14:37:50;;;;;;;9.60;8.63;;;;;;;;;;5055472;28;20032;-77
2021/08/17 14:40:16;;;;;;;11.05;8.20;;;;;;;;;;5055091;28;20021;-78